sensor_id;sensor_type;location;lat;lon;timestamp;pressure;altitude;pressure_sealevel;temperature
64960;BMP180;51487;52.266;10.542;2022-11-20T00:03:41;100283.00;;;-1.60
64960;BMP180;51487;52.266;10.542;2022-11-20T00:06:09;100280.00;;;-1.50
64960;BMP180;51487;52.266;10.542;2022-11-20T00:08:37;100275.00;;;-1.50
64960;BMP180;51487;52.266;10.542;2022-11-20T00:11:07;100283.00;;;-1.30
64960;BMP180;51487;52.266;10.542;2022-11-20T00:13:34;100271.00;;;-1.30
64960;BMP180;51487;52.266;10.542;2022-11-20T00:16:02;100267.00;;;-1.30
64960;BMP180;51487;52.266;10.542;2022-11-20T00:18:30;100276.00;;;-1.40
64960;BMP180;51487;52.266;10.542;2022-11-20T00:21:05;100278.00;;;-1.40
64960;BMP180;51487;52.266;10.542;2022-11-20T00:23:32;100276.00;;;-1.40
64960;BMP180;51487;52.266;10.542;2022-11-20T00:26:03;100273.00;;;-1.40
64960;BMP180;51487;52.266;10.542;2022-11-20T00:28:29;100265.00;;;-1.50
64960;BMP180;51487;52.266;10.542;2022-11-20T00:31:06;100253.00;;;-1.50
64960;BMP180;51487;52.266;10.542;2022-11-20T00:33:34;100257.00;;;-1.60
64960;BMP180;51487;52.266;10.542;2022-11-20T00:36:08;100263.00;;;-1.60
64960;BMP180;51487;52.266;10.542;2022-11-20T00:38:36;100268.00;;;-1.70
64960;BMP180;51487;52.266;10.542;2022-11-20T00:41:07;100260.00;;;-1.60
64960;BMP180;51487;52.266;10.542;2022-11-20T00:43:34;100262.00;;;-1.60
64960;BMP180;51487;52.266;10.542;2022-11-20T00:46:03;100263.00;;;-1.60
64960;BMP180;51487;52.266;10.542;2022-11-20T00:48:30;100263.00;;;-1.70
64960;BMP180;51487;52.266;10.542;2022-11-20T00:50:56;100258.00;;;-1.70
64960;BMP180;51487;52.266;10.542;2022-11-20T00:53:22;100259.00;;;-1.70
64960;BMP180;51487;52.266;10.542;2022-11-20T00:56:02;100264.00;;;-1.90
64960;BMP180;51487;52.266;10.542;2022-11-20T00:58:32;100255.00;;;-1.80
64960;BMP180;51487;52.266;10.542;2022-11-20T01:01:07;100254.00;;;-2.00
64960;BMP180;51487;52.266;10.542;2022-11-20T01:03:40;100265.00;;;-1.90
64960;BMP180;51487;52.266;10.542;2022-11-20T01:06:21;100262.00;;;-1.90
64960;BMP180;51487;52.266;10.542;2022-11-20T01:08:57;100259.00;;;-1.90
64960;BMP180;51487;52.266;10.542;2022-11-20T01:11:29;100255.00;;;-2.00
64960;BMP180;51487;52.266;10.542;2022-11-20T01:14:00;100254.00;;;-2.00
64960;BMP180;51487;52.266;10.542;2022-11-20T01:16:30;100248.00;;;-2.10
64960;BMP180;51487;52.266;10.542;2022-11-20T01:18:59;100257.00;;;-2.20
64960;BMP180;51487;52.266;10.542;2022-11-20T01:21:29;100254.00;;;-2.20
64960;BMP180;51487;52.266;10.542;2022-11-20T01:23:57;100249.00;;;-2.20
64960;BMP180;51487;52.266;10.542;2022-11-20T01:26:28;100248.00;;;-2.30
64960;BMP180;51487;52.266;10.542;2022-11-20T01:28:56;100238.00;;;-2.30
64960;BMP180;51487;52.266;10.542;2022-11-20T01:31:24;100235.00;;;-2.30
64960;BMP180;51487;52.266;10.542;2022-11-20T01:33:54;100240.00;;;-2.30
64960;BMP180;51487;52.266;10.542;2022-11-20T01:36:24;100237.00;;;-2.40
64960;BMP180;51487;52.266;10.542;2022-11-20T01:38:55;100233.00;;;-2.40
64960;BMP180;51487;52.266;10.542;2022-11-20T01:41:24;100229.00;;;-2.40
64960;BMP180;51487;52.266;10.542;2022-11-20T01:44:12;100223.00;;;-2.40
64960;BMP180;51487;52.266;10.542;2022-11-20T01:46:45;100222.00;;;-2.40
64960;BMP180;51487;52.266;10.542;2022-11-20T01:49:40;100212.00;;;-2.30
64960;BMP180;51487;52.266;10.542;2022-11-20T01:52:20;100210.00;;;-2.40
64960;BMP180;51487;52.266;10.542;2022-11-20T01:54:58;100218.00;;;-2.30
64960;BMP180;51487;52.266;10.542;2022-11-20T01:57:45;100209.00;;;-2.20
64960;BMP180;51487;52.266;10.542;2022-11-20T02:00:15;100210.00;;;-2.20
64960;BMP180;51487;52.266;10.542;2022-11-20T02:02:45;100210.00;;;-2.30
64960;BMP180;51487;52.266;10.542;2022-11-20T02:05:23;100208.00;;;-2.40
64960;BMP180;51487;52.266;10.542;2022-11-20T02:07:54;100197.00;;;-2.40
64960;BMP180;51487;52.266;10.542;2022-11-20T02:10:21;100194.00;;;-2.40
64960;BMP180;51487;52.266;10.542;2022-11-20T02:12:47;100199.00;;;-2.30
64960;BMP180;51487;52.266;10.542;2022-11-20T02:15:32;100195.00;;;-2.30
64960;BMP180;51487;52.266;10.542;2022-11-20T02:17:58;100197.00;;;-2.30
64960;BMP180;51487;52.266;10.542;2022-11-20T02:20:25;100198.00;;;-2.20
64960;BMP180;51487;52.266;10.542;2022-11-20T02:22:56;100196.00;;;-2.20
64960;BMP180;51487;52.266;10.542;2022-11-20T02:25:26;100193.00;;;-2.10
64960;BMP180;51487;52.266;10.542;2022-11-20T02:27:53;100193.00;;;-2.10
64960;BMP180;51487;52.266;10.542;2022-11-20T02:30:19;100183.00;;;-2.20
64960;BMP180;51487;52.266;10.542;2022-11-20T02:32:45;100186.00;;;-2.20
64960;BMP180;51487;52.266;10.542;2022-11-20T02:37:48;100194.00;;;-2.10
64960;BMP180;51487;52.266;10.542;2022-11-20T02:40:14;100192.00;;;-2.20
64960;BMP180;51487;52.266;10.542;2022-11-20T02:42:40;100192.00;;;-2.20
64960;BMP180;51487;52.266;10.542;2022-11-20T02:45:06;100186.00;;;-2.10
64960;BMP180;51487;52.266;10.542;2022-11-20T02:47:32;100179.00;;;-2.00
64960;BMP180;51487;52.266;10.542;2022-11-20T02:49:58;100177.00;;;-1.90
64960;BMP180;51487;52.266;10.542;2022-11-20T02:52:24;100178.00;;;-2.00
64960;BMP180;51487;52.266;10.542;2022-11-20T02:54:50;100171.00;;;-2.00
64960;BMP180;51487;52.266;10.542;2022-11-20T02:57:16;100188.00;;;-1.90
64960;BMP180;51487;52.266;10.542;2022-11-20T02:59:41;100181.00;;;-1.90
64960;BMP180;51487;52.266;10.542;2022-11-20T03:02:07;100173.00;;;-1.80
64960;BMP180;51487;52.266;10.542;2022-11-20T03:04:33;100176.00;;;-1.80
64960;BMP180;51487;52.266;10.542;2022-11-20T03:06:58;100180.00;;;-1.80
64960;BMP180;51487;52.266;10.542;2022-11-20T03:09:23;100176.00;;;-1.80
64960;BMP180;51487;52.266;10.542;2022-11-20T03:11:49;100174.00;;;-1.80
64960;BMP180;51487;52.266;10.542;2022-11-20T03:14:15;100165.00;;;-1.90
64960;BMP180;51487;52.266;10.542;2022-11-20T03:16:40;100166.00;;;-1.80
64960;BMP180;51487;52.266;10.542;2022-11-20T03:19:06;100175.00;;;-1.70
64960;BMP180;51487;52.266;10.542;2022-11-20T03:21:35;100171.00;;;-1.70
64960;BMP180;51487;52.266;10.542;2022-11-20T03:24:01;100179.00;;;-1.70
64960;BMP180;51487;52.266;10.542;2022-11-20T03:26:28;100174.00;;;-1.70
64960;BMP180;51487;52.266;10.542;2022-11-20T03:28:58;100175.00;;;-1.80
64960;BMP180;51487;52.266;10.542;2022-11-20T03:31:36;100176.00;;;-1.90
64960;BMP180;51487;52.266;10.542;2022-11-20T03:34:06;100170.00;;;-1.80
64960;BMP180;51487;52.266;10.542;2022-11-20T03:36:33;100170.00;;;-1.90
64960;BMP180;51487;52.266;10.542;2022-11-20T03:38:59;100166.00;;;-1.80
64960;BMP180;51487;52.266;10.542;2022-11-20T03:41:27;100164.00;;;-1.80
64960;BMP180;51487;52.266;10.542;2022-11-20T03:44:01;100165.00;;;-1.90
64960;BMP180;51487;52.266;10.542;2022-11-20T03:46:28;100161.00;;;-1.90
64960;BMP180;51487;52.266;10.542;2022-11-20T03:48:55;100164.00;;;-1.90
64960;BMP180;51487;52.266;10.542;2022-11-20T03:51:29;100167.00;;;-1.90
64960;BMP180;51487;52.266;10.542;2022-11-20T03:54:00;100152.00;;;-1.80
64960;BMP180;51487;52.266;10.542;2022-11-20T03:56:30;100156.00;;;-1.90
64960;BMP180;51487;52.266;10.542;2022-11-20T03:58:58;100139.00;;;-1.90
64960;BMP180;51487;52.266;10.542;2022-11-20T04:01:33;100148.00;;;-2.10
64960;BMP180;51487;52.266;10.542;2022-11-20T04:04:00;100141.00;;;-2.00
64960;BMP180;51487;52.266;10.542;2022-11-20T04:06:33;100138.00;;;-2.00
64960;BMP180;51487;52.266;10.542;2022-11-20T04:09:01;100150.00;;;-2.10
64960;BMP180;51487;52.266;10.542;2022-11-20T04:11:30;100148.00;;;-2.20
64960;BMP180;51487;52.266;10.542;2022-11-20T04:13:59;100133.00;;;-2.10
64960;BMP180;51487;52.266;10.542;2022-11-20T04:16:27;100139.00;;;-2.10
64960;BMP180;51487;52.266;10.542;2022-11-20T04:18:56;100135.00;;;-2.10
64960;BMP180;51487;52.266;10.542;2022-11-20T04:21:23;100137.00;;;-2.30
64960;BMP180;51487;52.266;10.542;2022-11-20T04:23:51;100133.00;;;-2.60
64960;BMP180;51487;52.266;10.542;2022-11-20T04:26:18;100133.00;;;-2.50
64960;BMP180;51487;52.266;10.542;2022-11-20T04:28:45;100131.00;;;-2.50
64960;BMP180;51487;52.266;10.542;2022-11-20T04:31:15;100140.00;;;-2.40
64960;BMP180;51487;52.266;10.542;2022-11-20T04:33:43;100133.00;;;-2.60
64960;BMP180;51487;52.266;10.542;2022-11-20T04:38:39;100132.00;;;-2.40
64960;BMP180;51487;52.266;10.542;2022-11-20T04:41:07;100123.00;;;-2.40
64960;BMP180;51487;52.266;10.542;2022-11-20T04:43:34;100121.00;;;-2.60
64960;BMP180;51487;52.266;10.542;2022-11-20T04:46:00;100125.00;;;-2.80
64960;BMP180;51487;52.266;10.542;2022-11-20T04:48:27;100132.00;;;-2.60
64960;BMP180;51487;52.266;10.542;2022-11-20T04:50:54;100134.00;;;-2.60
64960;BMP180;51487;52.266;10.542;2022-11-20T04:53:21;100138.00;;;-2.70
64960;BMP180;51487;52.266;10.542;2022-11-20T04:55:47;100127.00;;;-2.70
64960;BMP180;51487;52.266;10.542;2022-11-20T04:58:13;100128.00;;;-2.60
64960;BMP180;51487;52.266;10.542;2022-11-20T05:00:39;100132.00;;;-2.40
64960;BMP180;51487;52.266;10.542;2022-11-20T05:03:05;100124.00;;;-2.60
64960;BMP180;51487;52.266;10.542;2022-11-20T05:05:32;100130.00;;;-2.50
64960;BMP180;51487;52.266;10.542;2022-11-20T05:07:59;100130.00;;;-2.40
64960;BMP180;51487;52.266;10.542;2022-11-20T05:10:26;100128.00;;;-2.40
64960;BMP180;51487;52.266;10.542;2022-11-20T05:12:52;100127.00;;;-2.40
64960;BMP180;51487;52.266;10.542;2022-11-20T05:15:18;100127.00;;;-2.40
64960;BMP180;51487;52.266;10.542;2022-11-20T05:17:48;100122.00;;;-2.30
64960;BMP180;51487;52.266;10.542;2022-11-20T05:20:14;100123.00;;;-2.20
64960;BMP180;51487;52.266;10.542;2022-11-20T05:22:40;100116.00;;;-2.30
64960;BMP180;51487;52.266;10.542;2022-11-20T05:25:05;100122.00;;;-2.10
64960;BMP180;51487;52.266;10.542;2022-11-20T05:27:31;100117.00;;;-2.00
64960;BMP180;51487;52.266;10.542;2022-11-20T05:29:57;100127.00;;;-1.90
64960;BMP180;51487;52.266;10.542;2022-11-20T05:32:22;100122.00;;;-1.90
64960;BMP180;51487;52.266;10.542;2022-11-20T05:34:51;100128.00;;;-1.90
64960;BMP180;51487;52.266;10.542;2022-11-20T05:37:17;100123.00;;;-1.90
64960;BMP180;51487;52.266;10.542;2022-11-20T05:39:42;100106.00;;;-1.80
64960;BMP180;51487;52.266;10.542;2022-11-20T05:42:08;100112.00;;;-1.80
64960;BMP180;51487;52.266;10.542;2022-11-20T05:44:52;100112.00;;;-1.90
64960;BMP180;51487;52.266;10.542;2022-11-20T05:47:17;100098.00;;;-2.00
64960;BMP180;51487;52.266;10.542;2022-11-20T05:49:43;100088.00;;;-1.90
64960;BMP180;51487;52.266;10.542;2022-11-20T05:52:08;100096.00;;;-1.80
64960;BMP180;51487;52.266;10.542;2022-11-20T05:54:34;100087.00;;;-1.80
64960;BMP180;51487;52.266;10.542;2022-11-20T05:56:59;100086.00;;;-1.70
64960;BMP180;51487;52.266;10.542;2022-11-20T05:59:25;100096.00;;;-1.60
64960;BMP180;51487;52.266;10.542;2022-11-20T06:01:50;100085.00;;;-1.50
64960;BMP180;51487;52.266;10.542;2022-11-20T06:04:16;100094.00;;;-1.60
64960;BMP180;51487;52.266;10.542;2022-11-20T06:06:41;100113.00;;;-1.60
64960;BMP180;51487;52.266;10.542;2022-11-20T06:09:07;100101.00;;;-1.60
64960;BMP180;51487;52.266;10.542;2022-11-20T06:11:33;100106.00;;;-1.60
64960;BMP180;51487;52.266;10.542;2022-11-20T06:13:58;100105.00;;;-1.50
64960;BMP180;51487;52.266;10.542;2022-11-20T06:16:23;100099.00;;;-1.60
64960;BMP180;51487;52.266;10.542;2022-11-20T06:18:49;100096.00;;;-1.60
64960;BMP180;51487;52.266;10.542;2022-11-20T06:21:17;100099.00;;;-1.50
64960;BMP180;51487;52.266;10.542;2022-11-20T06:23:45;100099.00;;;-1.60
64960;BMP180;51487;52.266;10.542;2022-11-20T06:26:19;100095.00;;;-1.50
64960;BMP180;51487;52.266;10.542;2022-11-20T06:28:46;100097.00;;;-1.50
64960;BMP180;51487;52.266;10.542;2022-11-20T06:31:14;100089.00;;;-1.50
64960;BMP180;51487;52.266;10.542;2022-11-20T06:33:41;100088.00;;;-1.30
64960;BMP180;51487;52.266;10.542;2022-11-20T06:36:07;100078.00;;;-1.40
64960;BMP180;51487;52.266;10.542;2022-11-20T06:38:32;100079.00;;;-1.50
64960;BMP180;51487;52.266;10.542;2022-11-20T06:40:58;100092.00;;;-1.50
64960;BMP180;51487;52.266;10.542;2022-11-20T06:43:24;100081.00;;;-1.50
64960;BMP180;51487;52.266;10.542;2022-11-20T06:45:54;100087.00;;;-1.40
64960;BMP180;51487;52.266;10.542;2022-11-20T06:48:22;100082.00;;;-1.40
64960;BMP180;51487;52.266;10.542;2022-11-20T06:50:49;100076.00;;;-1.50
64960;BMP180;51487;52.266;10.542;2022-11-20T06:53:15;100080.00;;;-1.50
64960;BMP180;51487;52.266;10.542;2022-11-20T06:55:47;100087.00;;;-1.50
64960;BMP180;51487;52.266;10.542;2022-11-20T06:58:14;100078.00;;;-1.40
64960;BMP180;51487;52.266;10.542;2022-11-20T07:00:40;100087.00;;;-1.40
64960;BMP180;51487;52.266;10.542;2022-11-20T07:03:08;100079.00;;;-1.50
64960;BMP180;51487;52.266;10.542;2022-11-20T07:05:35;100073.00;;;-1.50
64960;BMP180;51487;52.266;10.542;2022-11-20T07:08:02;100081.00;;;-1.50
64960;BMP180;51487;52.266;10.542;2022-11-20T07:10:28;100088.00;;;-1.60
64960;BMP180;51487;52.266;10.542;2022-11-20T07:12:54;100074.00;;;-1.50
64960;BMP180;51487;52.266;10.542;2022-11-20T07:15:21;100073.00;;;-1.20
64960;BMP180;51487;52.266;10.542;2022-11-20T07:17:48;100074.00;;;-1.30
64960;BMP180;51487;52.266;10.542;2022-11-20T07:20:14;100066.00;;;-1.30
64960;BMP180;51487;52.266;10.542;2022-11-20T07:22:40;100075.00;;;-1.30
64960;BMP180;51487;52.266;10.542;2022-11-20T07:25:06;100079.00;;;-1.40
64960;BMP180;51487;52.266;10.542;2022-11-20T07:27:33;100067.00;;;-1.30
64960;BMP180;51487;52.266;10.542;2022-11-20T07:29:59;100075.00;;;-1.30
64960;BMP180;51487;52.266;10.542;2022-11-20T07:32:25;100069.00;;;-1.20
64960;BMP180;51487;52.266;10.542;2022-11-20T07:34:51;100074.00;;;-1.30
64960;BMP180;51487;52.266;10.542;2022-11-20T07:37:16;100081.00;;;-1.30
64960;BMP180;51487;52.266;10.542;2022-11-20T07:39:42;100074.00;;;-1.30
64960;BMP180;51487;52.266;10.542;2022-11-20T07:42:08;100080.00;;;-1.30
64960;BMP180;51487;52.266;10.542;2022-11-20T07:44:34;100083.00;;;-1.10
64960;BMP180;51487;52.266;10.542;2022-11-20T07:46:59;100079.00;;;-1.30
64960;BMP180;51487;52.266;10.542;2022-11-20T07:49:25;100078.00;;;-1.40
64960;BMP180;51487;52.266;10.542;2022-11-20T07:51:51;100078.00;;;-1.20
64960;BMP180;51487;52.266;10.542;2022-11-20T07:54:19;100063.00;;;-1.10
64960;BMP180;51487;52.266;10.542;2022-11-20T07:56:46;100062.00;;;-1.10
64960;BMP180;51487;52.266;10.542;2022-11-20T07:59:12;100070.00;;;-1.20
64960;BMP180;51487;52.266;10.542;2022-11-20T08:01:38;100070.00;;;-1.00
64960;BMP180;51487;52.266;10.542;2022-11-20T08:04:04;100073.00;;;-1.00
64960;BMP180;51487;52.266;10.542;2022-11-20T08:06:31;100069.00;;;-0.90
64960;BMP180;51487;52.266;10.542;2022-11-20T08:08:57;100059.00;;;-1.00
64960;BMP180;51487;52.266;10.542;2022-11-20T08:11:22;100063.00;;;-1.00
64960;BMP180;51487;52.266;10.542;2022-11-20T08:14:07;100059.00;;;-1.10
64960;BMP180;51487;52.266;10.542;2022-11-20T08:16:48;100064.00;;;-1.00
64960;BMP180;51487;52.266;10.542;2022-11-20T08:19:16;100058.00;;;-0.90
64960;BMP180;51487;52.266;10.542;2022-11-20T08:21:43;100060.00;;;-0.80
64960;BMP180;51487;52.266;10.542;2022-11-20T08:24:10;100076.00;;;-0.80
64960;BMP180;51487;52.266;10.542;2022-11-20T08:26:37;100068.00;;;-0.70
64960;BMP180;51487;52.266;10.542;2022-11-20T08:29:04;100084.00;;;-0.90
64960;BMP180;51487;52.266;10.542;2022-11-20T08:31:30;100076.00;;;-0.80
64960;BMP180;51487;52.266;10.542;2022-11-20T08:33:56;100081.00;;;-0.80
64960;BMP180;51487;52.266;10.542;2022-11-20T08:36:23;100074.00;;;-0.70
64960;BMP180;51487;52.266;10.542;2022-11-20T08:38:54;100079.00;;;-0.60
64960;BMP180;51487;52.266;10.542;2022-11-20T08:41:21;100083.00;;;-0.70
64960;BMP180;51487;52.266;10.542;2022-11-20T08:43:53;100073.00;;;-0.60
64960;BMP180;51487;52.266;10.542;2022-11-20T08:46:21;100085.00;;;-0.60
64960;BMP180;51487;52.266;10.542;2022-11-20T08:48:51;100077.00;;;-0.50
64960;BMP180;51487;52.266;10.542;2022-11-20T08:51:18;100086.00;;;-0.50
64960;BMP180;51487;52.266;10.542;2022-11-20T08:53:45;100070.00;;;-0.60
64960;BMP180;51487;52.266;10.542;2022-11-20T08:56:11;100068.00;;;-0.50
64960;BMP180;51487;52.266;10.542;2022-11-20T08:58:38;100074.00;;;-0.40
64960;BMP180;51487;52.266;10.542;2022-11-20T09:01:04;100068.00;;;-0.20
64960;BMP180;51487;52.266;10.542;2022-11-20T09:03:30;100076.00;;;-0.40
64960;BMP180;51487;52.266;10.542;2022-11-20T09:06:01;100074.00;;;-0.40
64960;BMP180;51487;52.266;10.542;2022-11-20T09:08:29;100066.00;;;-0.40
64960;BMP180;51487;52.266;10.542;2022-11-20T09:10:55;100065.00;;;-0.40
64960;BMP180;51487;52.266;10.542;2022-11-20T09:13:23;100061.00;;;-0.30
64960;BMP180;51487;52.266;10.542;2022-11-20T09:15:53;100063.00;;;-0.10
64960;BMP180;51487;52.266;10.542;2022-11-20T09:18:23;100054.00;;;-0.20
64960;BMP180;51487;52.266;10.542;2022-11-20T09:20:49;100056.00;;;-0.10
64960;BMP180;51487;52.266;10.542;2022-11-20T09:23:15;100050.00;;;0.00
64960;BMP180;51487;52.266;10.542;2022-11-20T09:25:41;100041.00;;;-0.20
64960;BMP180;51487;52.266;10.542;2022-11-20T09:28:07;100041.00;;;-0.20
64960;BMP180;51487;52.266;10.542;2022-11-20T09:30:32;100037.00;;;-0.20
64960;BMP180;51487;52.266;10.542;2022-11-20T09:32:58;100034.00;;;0.00
64960;BMP180;51487;52.266;10.542;2022-11-20T09:35:24;100037.00;;;-0.10
64960;BMP180;51487;52.266;10.542;2022-11-20T09:37:49;100041.00;;;-0.10
64960;BMP180;51487;52.266;10.542;2022-11-20T09:40:26;100037.00;;;0.10
64960;BMP180;51487;52.266;10.542;2022-11-20T09:43:11;100058.00;;;0.00
64960;BMP180;51487;52.266;10.542;2022-11-20T09:48:20;100047.00;;;0.50
64960;BMP180;51487;52.266;10.542;2022-11-20T09:51:18;100038.00;;;0.30
64960;BMP180;51487;52.266;10.542;2022-11-20T09:56:47;100045.00;;;0.40
64960;BMP180;51487;52.266;10.542;2022-11-20T10:01:59;100035.00;;;0.60
64960;BMP180;51487;52.266;10.542;2022-11-20T10:04:29;100031.00;;;0.70
64960;BMP180;51487;52.266;10.542;2022-11-20T10:07:17;100028.00;;;0.60
64960;BMP180;51487;52.266;10.542;2022-11-20T10:09:55;100026.00;;;0.80
64960;BMP180;51487;52.266;10.542;2022-11-20T10:18:23;100022.00;;;0.80
64960;BMP180;51487;52.266;10.542;2022-11-20T10:21:27;100028.00;;;0.60
64960;BMP180;51487;52.266;10.542;2022-11-20T10:27:13;100025.00;;;0.80
64960;BMP180;51487;52.266;10.542;2022-11-20T10:30:20;100035.00;;;1.00
64960;BMP180;51487;52.266;10.542;2022-11-20T10:32:52;100030.00;;;1.20
64960;BMP180;51487;52.266;10.542;2022-11-20T10:35:49;100028.00;;;1.30
64960;BMP180;51487;52.266;10.542;2022-11-20T10:38:25;100021.00;;;1.10
64960;BMP180;51487;52.266;10.542;2022-11-20T10:41:01;100022.00;;;1.00
64960;BMP180;51487;52.266;10.542;2022-11-20T10:43:48;100013.00;;;0.80
64960;BMP180;51487;52.266;10.542;2022-11-20T10:46:19;100016.00;;;1.00
64960;BMP180;51487;52.266;10.542;2022-11-20T10:48:48;100012.00;;;0.80
64960;BMP180;51487;52.266;10.542;2022-11-20T10:56:50;100004.00;;;1.00
64960;BMP180;51487;52.266;10.542;2022-11-20T10:59:49;100016.00;;;1.10
64960;BMP180;51487;52.266;10.542;2022-11-20T11:02:37;100003.00;;;1.30
64960;BMP180;51487;52.266;10.542;2022-11-20T11:05:41;99996.00;;;1.40
64960;BMP180;51487;52.266;10.542;2022-11-20T11:08:17;100018.00;;;1.30
64960;BMP180;51487;52.266;10.542;2022-11-20T11:10:54;100006.00;;;1.20
64960;BMP180;51487;52.266;10.542;2022-11-20T11:13:24;100014.00;;;0.80
64960;BMP180;51487;52.266;10.542;2022-11-20T11:15:54;100011.00;;;0.80
64960;BMP180;51487;52.266;10.542;2022-11-20T11:18:29;100009.00;;;0.80
64960;BMP180;51487;52.266;10.542;2022-11-20T11:20:59;100003.00;;;0.80
64960;BMP180;51487;52.266;10.542;2022-11-20T11:23:32;100000.00;;;0.70
64960;BMP180;51487;52.266;10.542;2022-11-20T11:26:04;99996.00;;;0.70
64960;BMP180;51487;52.266;10.542;2022-11-20T11:28:32;100001.00;;;0.70
64960;BMP180;51487;52.266;10.542;2022-11-20T11:30:58;99995.00;;;0.80
64960;BMP180;51487;52.266;10.542;2022-11-20T11:33:29;99994.00;;;0.80
64960;BMP180;51487;52.266;10.542;2022-11-20T11:35:59;99987.00;;;0.80
64960;BMP180;51487;52.266;10.542;2022-11-20T11:38:35;99996.00;;;1.20
64960;BMP180;51487;52.266;10.542;2022-11-20T11:41:05;99985.00;;;1.10
64960;BMP180;51487;52.266;10.542;2022-11-20T11:43:35;99977.00;;;1.20
64960;BMP180;51487;52.266;10.542;2022-11-20T11:46:36;99974.00;;;1.40
64960;BMP180;51487;52.266;10.542;2022-11-20T11:51:45;99977.00;;;1.50
64960;BMP180;51487;52.266;10.542;2022-11-20T11:54:36;99973.00;;;1.60
64960;BMP180;51487;52.266;10.542;2022-11-20T11:57:13;99976.00;;;1.80
64960;BMP180;51487;52.266;10.542;2022-11-20T12:05:22;99978.00;;;1.70
64960;BMP180;51487;52.266;10.542;2022-11-20T12:10:52;99978.00;;;1.60
64960;BMP180;51487;52.266;10.542;2022-11-20T12:13:42;99973.00;;;1.60
64960;BMP180;51487;52.266;10.542;2022-11-20T12:16:35;99968.00;;;1.50
64960;BMP180;51487;52.266;10.542;2022-11-20T12:19:08;99965.00;;;1.40
64960;BMP180;51487;52.266;10.542;2022-11-20T12:25:05;99966.00;;;1.20
64960;BMP180;51487;52.266;10.542;2022-11-20T12:39:35;99962.00;;;1.60
64960;BMP180;51487;52.266;10.542;2022-11-20T12:42:26;99966.00;;;1.40
64960;BMP180;51487;52.266;10.542;2022-11-20T12:48:41;99959.00;;;1.30
64960;BMP180;51487;52.266;10.542;2022-11-20T12:51:21;99969.00;;;1.10
64960;BMP180;51487;52.266;10.542;2022-11-20T12:57:21;99959.00;;;1.00
64960;BMP180;51487;52.266;10.542;2022-11-20T13:00:06;99956.00;;;1.20
64960;BMP180;51487;52.266;10.542;2022-11-20T13:05:24;99945.00;;;1.50
64960;BMP180;51487;52.266;10.542;2022-11-20T13:07:57;99938.00;;;1.70
64960;BMP180;51487;52.266;10.542;2022-11-20T13:10:33;99938.00;;;1.60
64960;BMP180;51487;52.266;10.542;2022-11-20T13:13:16;99938.00;;;1.60
64960;BMP180;51487;52.266;10.542;2022-11-20T13:15:54;99946.00;;;1.50
64960;BMP180;51487;52.266;10.542;2022-11-20T13:18:25;99938.00;;;1.60
64960;BMP180;51487;52.266;10.542;2022-11-20T13:20:52;99943.00;;;1.60
64960;BMP180;51487;52.266;10.542;2022-11-20T13:23:27;99947.00;;;1.60
64960;BMP180;51487;52.266;10.542;2022-11-20T13:26:06;99948.00;;;1.80
64960;BMP180;51487;52.266;10.542;2022-11-20T13:28:45;99950.00;;;1.80
64960;BMP180;51487;52.266;10.542;2022-11-20T13:31:28;99945.00;;;1.60
64960;BMP180;51487;52.266;10.542;2022-11-20T13:33:57;99944.00;;;1.40
64960;BMP180;51487;52.266;10.542;2022-11-20T13:36:28;99945.00;;;1.50
64960;BMP180;51487;52.266;10.542;2022-11-20T13:38:56;99938.00;;;1.50
64960;BMP180;51487;52.266;10.542;2022-11-20T13:41:36;99951.00;;;1.50
64960;BMP180;51487;52.266;10.542;2022-11-20T13:44:13;99953.00;;;1.40
64960;BMP180;51487;52.266;10.542;2022-11-20T13:46:50;99945.00;;;1.50
64960;BMP180;51487;52.266;10.542;2022-11-20T13:49:33;99940.00;;;1.60
64960;BMP180;51487;52.266;10.542;2022-11-20T13:58:04;99933.00;;;1.60
64960;BMP180;51487;52.266;10.542;2022-11-20T14:00:58;99934.00;;;1.50
64960;BMP180;51487;52.266;10.542;2022-11-20T14:03:34;99930.00;;;1.50
64960;BMP180;51487;52.266;10.542;2022-11-20T14:06:05;99931.00;;;1.50
64960;BMP180;51487;52.266;10.542;2022-11-20T14:08:49;99921.00;;;1.30
64960;BMP180;51487;52.266;10.542;2022-11-20T14:11:17;99913.00;;;1.30
64960;BMP180;51487;52.266;10.542;2022-11-20T14:14:13;99923.00;;;1.40
64960;BMP180;51487;52.266;10.542;2022-11-20T14:16:43;99931.00;;;1.50
64960;BMP180;51487;52.266;10.542;2022-11-20T14:19:29;99934.00;;;1.50
64960;BMP180;51487;52.266;10.542;2022-11-20T14:24:47;99920.00;;;1.40
64960;BMP180;51487;52.266;10.542;2022-11-20T14:27:18;99933.00;;;1.30
64960;BMP180;51487;52.266;10.542;2022-11-20T14:29:47;99923.00;;;1.30
64960;BMP180;51487;52.266;10.542;2022-11-20T14:32:16;99937.00;;;1.30
64960;BMP180;51487;52.266;10.542;2022-11-20T14:34:46;99930.00;;;1.40
64960;BMP180;51487;52.266;10.542;2022-11-20T14:37:20;99930.00;;;1.30
64960;BMP180;51487;52.266;10.542;2022-11-20T14:39:56;99925.00;;;1.30
64960;BMP180;51487;52.266;10.542;2022-11-20T14:42:25;99933.00;;;1.10
64960;BMP180;51487;52.266;10.542;2022-11-20T14:44:57;99924.00;;;1.10
64960;BMP180;51487;52.266;10.542;2022-11-20T14:47:29;99918.00;;;1.10
64960;BMP180;51487;52.266;10.542;2022-11-20T14:49:57;99919.00;;;1.10
64960;BMP180;51487;52.266;10.542;2022-11-20T14:52:26;99915.00;;;1.00
64960;BMP180;51487;52.266;10.542;2022-11-20T14:54:57;99902.00;;;1.00
64960;BMP180;51487;52.266;10.542;2022-11-20T14:57:33;99907.00;;;1.00
64960;BMP180;51487;52.266;10.542;2022-11-20T15:00:05;99905.00;;;1.00
64960;BMP180;51487;52.266;10.542;2022-11-20T15:02:47;99907.00;;;1.10
64960;BMP180;51487;52.266;10.542;2022-11-20T15:05:17;99902.00;;;1.00
64960;BMP180;51487;52.266;10.542;2022-11-20T15:08:07;99893.00;;;0.90
64960;BMP180;51487;52.266;10.542;2022-11-20T15:10:34;99893.00;;;0.90
64960;BMP180;51487;52.266;10.542;2022-11-20T15:13:12;99891.00;;;0.80
64960;BMP180;51487;52.266;10.542;2022-11-20T15:15:49;99889.00;;;0.80
64960;BMP180;51487;52.266;10.542;2022-11-20T15:18:21;99887.00;;;0.80
64960;BMP180;51487;52.266;10.542;2022-11-20T15:20:55;99881.00;;;0.80
64960;BMP180;51487;52.266;10.542;2022-11-20T15:23:22;99882.00;;;0.90
64960;BMP180;51487;52.266;10.542;2022-11-20T15:25:52;99884.00;;;0.80
64960;BMP180;51487;52.266;10.542;2022-11-20T15:28:31;99884.00;;;0.80